Whidbey Island Naval Air Station /Ault Field/ Airport
KNUW : now visible

Airfield :











YOU CAN JOIN US ON...

 
LOGIN :

Register | Disclaimer

   EN    FR    IT 

 









Legend :    VFR   Marginal VFR   IFR   Intensive IFR   Very Intensive IFR
Visi :
Ceiling :
>= 8 km
>= 3000ft
5 to 8 km
1000 to 3000 ft
1500m to 5 km
500 to 1000 ft
800 to 1500m
200 to 500 ft
< 800m
< 200 ft
Symbols :   Thunderstorms  Fog  Heavy snow  Heavy precipitations  Wind > 20 kt






- Airport Elevation : 47 ft


KNUW - Whidbey Island Naval Air Station /Ault Field/

CURRENT METAR :
  • 282253Z 29007KT 10SM FEW023 SCT040 BKN070 BKN200 12/09 A3013 RMK AO2 RAE04B24E36 SLP205 P0000 T01220089 $

EXPIRED METARs :
  • 282153Z 26008KT 10SM -RA FEW020 SCT040 OVC060 11/09 A3012 RMK AO2 SLP201 P0002 T01110089 $
  • 282053Z 26005KT 8SM -RA FEW012 SCT025 OVC043 11/09 A3011 RMK AO2 SLP199 P0004 60011 T01060094 51009 $
  • 282005Z 23005KT 10SM -RA FEW011 SCT022 OVC031 11/10 A3011 RMK AO2 P0000 T01060100 $
  • 281953Z 23005KT 9SM -RA FEW010 SCT021 OVC028 11/09 A3011 RMK AO2 SLP199 P0006 T01060094 $
  • 281853Z 24006KT 7SM -RA SCT011 OVC018 11/09 A3010 RMK AO2 RAE00B09 CIG 012 SLP196 P0001 T01060094 $

TAF TAF KNUW
Valid from the 28 at 23:00 until the 29 at 23:00 UTC


2823/2923 28007KT 9999 VCSH FEW025 SCT040 BKN070 BKN200 640509 QNH3010INS
FM290100 29013G21KT 9999 SCT050 BKN080 BKN200 600000 530109 QNH3012INS
FM290900 VRB06KT 9999 -RA BKN020 BKN033 OVC060 640409 500000 QNH3020INS
TEMPO 2910/2916 4800 SHRA BR SCT008 OVC013
FM291700 27007KT 9999 VCSH SCT030 BKN055 BKN150 640409 530109 QNH3027INS
FM292100 26015G25KT 9999 VCSH FEW035 BKN070 BKN150 600000 530009 QNH3030INS TX13/2923Z TN08/2912Z FS30046
KZSE FIR / North America



MET'MAP, your aeronautical weather chart ! - Copyright ORBIFLY December 2007 - Disclaimer

ORBIFLY MET'MAP TEAM :

Programming & Development : Alexandra Zaïnal
Original concept : Baudouin d'Aumeries
Technical & hardware support : Manuel Goepfert
Assistance : Marc-Olivier Méhu




SOURCES & CREDITS :

   NOAA       Earth
Advisory